createdAt,value
2018-07-17T00:01:53.541Z,16.00
2018-07-17T00:04:26.657Z,16.00
2018-07-17T00:06:56.870Z,16.00
2018-07-17T00:09:25.088Z,15.90
2018-07-17T00:11:56.091Z,15.80
2018-07-17T00:14:32.147Z,15.80
2018-07-17T00:17:00.291Z,15.80
2018-07-17T00:19:34.710Z,15.80
2018-07-17T00:22:07.274Z,15.70
2018-07-17T00:24:41.791Z,15.70
2018-07-17T00:27:12.775Z,15.70
2018-07-17T00:29:41.129Z,15.60
2018-07-17T00:32:09.432Z,15.50
2018-07-17T00:34:38.124Z,15.50
2018-07-17T00:37:06.371Z,15.50
2018-07-17T00:39:44.026Z,15.40
2018-07-17T00:42:12.133Z,15.40
2018-07-17T00:44:44.264Z,15.40
2018-07-17T00:47:17.514Z,15.30
2018-07-17T00:49:45.694Z,15.30
2018-07-17T00:52:18.838Z,15.30
2018-07-17T00:54:50.910Z,15.20
2018-07-17T00:57:19.020Z,15.20
2018-07-17T00:59:49.728Z,15.20
2018-07-17T01:02:23.515Z,15.10
2018-07-17T01:05:00.221Z,15.10
2018-07-17T01:07:39.547Z,15.10
2018-07-17T01:10:24.662Z,15.00
2018-07-17T01:12:54.203Z,15.00
2018-07-17T01:15:35.443Z,15.00
2018-07-17T01:18:03.771Z,15.00
2018-07-17T01:20:32.119Z,15.00
2018-07-17T01:23:05.478Z,14.90
2018-07-17T01:25:38.589Z,14.90
2018-07-17T01:28:11.870Z,14.90
2018-07-17T01:30:42.056Z,14.80
2018-07-17T01:33:10.251Z,14.80
2018-07-17T01:35:44.149Z,14.80
2018-07-17T01:38:12.286Z,14.70
2018-07-17T01:40:45.338Z,14.70
2018-07-17T01:43:16.850Z,14.70
2018-07-17T01:45:47.203Z,14.60
2018-07-17T01:48:17.499Z,14.60
2018-07-17T01:50:45.716Z,14.60
2018-07-17T01:53:20.166Z,14.50
2018-07-17T01:55:51.379Z,14.50
2018-07-17T01:58:22.266Z,14.50
2018-07-17T02:00:50.611Z,14.40
2018-07-17T02:03:24.942Z,14.30
2018-07-17T02:05:58.830Z,14.30
2018-07-17T02:08:26.974Z,14.30
2018-07-17T02:11:09.622Z,14.20
2018-07-17T02:13:37.641Z,14.20
2018-07-17T02:16:12.255Z,14.10
2018-07-17T02:18:46.839Z,14.10
2018-07-17T02:21:17.714Z,14.10
2018-07-17T02:23:47.895Z,14.10
2018-07-17T02:26:16.106Z,14.00
2018-07-17T02:28:50.734Z,14.00
2018-07-17T02:31:24.910Z,14.00
2018-07-17T02:33:55.810Z,13.90
2018-07-17T02:36:24.087Z,13.90
2018-07-17T02:38:56.424Z,13.80
2018-07-17T02:41:31.025Z,13.80
2018-07-17T02:44:05.618Z,13.80
2018-07-17T02:46:33.779Z,13.80
2018-07-17T02:49:04.907Z,13.70
2018-07-17T02:51:44.583Z,13.70
2018-07-17T02:54:16.990Z,13.70
2018-07-17T02:56:51.383Z,13.70
2018-07-17T02:59:24.708Z,13.70
2018-07-17T03:01:55.883Z,13.60
2018-07-17T03:04:24.277Z,13.60
2018-07-17T03:06:52.578Z,13.60
2018-07-17T03:09:27.203Z,13.60
2018-07-17T03:11:55.234Z,13.50
2018-07-17T03:14:29.911Z,13.50
2018-07-17T03:17:04.430Z,13.50
2018-07-17T03:19:37.303Z,13.50
2018-07-17T03:22:05.513Z,13.40
2018-07-17T03:24:33.706Z,13.40
2018-07-17T03:27:09.954Z,13.40
2018-07-17T03:29:41.310Z,13.40
2018-07-17T03:32:21.878Z,13.40
2018-07-17T03:34:55.823Z,13.40
2018-07-17T03:37:23.979Z,13.30
2018-07-17T03:39:58.247Z,13.40
2018-07-17T03:42:29.245Z,13.40
2018-07-17T03:44:57.733Z,13.40
2018-07-17T03:47:25.875Z,13.40
2018-07-17T03:50:05.583Z,13.40
2018-07-17T03:55:09.895Z,13.40
2018-07-17T03:57:39.994Z,13.40
2018-07-17T04:00:08.239Z,13.50
2018-07-17T04:02:43.941Z,13.50
2018-07-17T04:05:12.159Z,13.50
2018-07-17T04:07:47.362Z,13.60
2018-07-17T04:10:18.549Z,13.60
2018-07-17T04:12:47.261Z,13.60
2018-07-17T04:15:18.579Z,13.70
2018-07-17T04:17:48.823Z,13.70
2018-07-17T04:20:16.997Z,13.70
2018-07-17T04:22:47.827Z,13.80
2018-07-17T04:25:16.038Z,13.80
2018-07-17T04:27:47.031Z,13.80
2018-07-17T04:30:17.680Z,13.80
2018-07-17T04:32:48.783Z,13.90
2018-07-17T04:35:17.014Z,13.90
2018-07-17T04:37:50.002Z,13.90
2018-07-17T04:40:20.353Z,14.00
2018-07-17T04:42:48.874Z,14.00
2018-07-17T04:45:17.355Z,14.00
2018-07-17T04:47:45.648Z,14.00
2018-07-17T04:50:13.794Z,14.10
2018-07-17T04:52:44.862Z,14.10
2018-07-17T04:55:13.219Z,14.20
2018-07-17T04:57:41.414Z,14.20
2018-07-17T05:00:15.855Z,14.20
2018-07-17T05:02:47.939Z,14.20
2018-07-17T05:05:27.718Z,14.30
2018-07-17T05:07:58.654Z,14.30
2018-07-17T05:10:28.881Z,14.40
2018-07-17T05:12:57.152Z,14.50
2018-07-17T05:15:32.343Z,14.60
2018-07-17T05:18:04.844Z,14.70
2018-07-17T05:20:35.750Z,14.80
2018-07-17T05:23:03.881Z,15.10
2018-07-17T05:25:36.281Z,15.50
2018-07-17T05:28:08.507Z,16.10
2018-07-17T05:30:53.558Z,16.70
2018-07-17T05:33:21.659Z,17.40
2018-07-17T05:35:52.627Z,18.10
2018-07-17T05:38:20.686Z,18.70
2018-07-17T05:41:00.379Z,19.40
2018-07-17T05:43:28.518Z,19.90
2018-07-17T05:46:05.301Z,20.40
2018-07-17T05:48:33.486Z,20.90
2018-07-17T05:51:08.870Z,21.40
2018-07-17T05:53:40.487Z,21.80
2018-07-17T05:56:12.910Z,22.20
2018-07-17T05:58:46.202Z,22.60
2018-07-17T06:01:26.663Z,22.90
2018-07-17T06:04:01.188Z,23.30
2018-07-17T06:06:43.681Z,23.60
2018-07-17T06:09:12.089Z,23.80
2018-07-17T06:11:54.550Z,24.10
2018-07-17T06:14:32.143Z,24.30
2018-07-17T06:19:35.320Z,24.80
2018-07-17T06:22:06.417Z,25.10
2018-07-17T06:24:34.626Z,25.40
2018-07-17T06:27:10.166Z,25.60
2018-07-17T06:29:43.094Z,25.80
2018-07-17T06:32:11.430Z,26.10
2018-07-17T06:34:39.585Z,26.30
2018-07-17T06:37:10.749Z,26.50
2018-07-17T06:39:41.838Z,26.50
2018-07-17T06:44:47.631Z,26.70
2018-07-17T06:47:15.844Z,26.80
2018-07-17T06:49:48.221Z,27.00
2018-07-17T06:52:20.896Z,27.20
2018-07-17T06:54:56.217Z,27.40
2018-07-17T06:57:29.300Z,27.40
2018-07-17T07:00:00.587Z,27.60
2018-07-17T07:02:28.725Z,27.80
2018-07-17T07:04:59.750Z,28.00
2018-07-17T07:07:29.998Z,28.20
2018-07-17T07:09:58.174Z,28.40
2018-07-17T07:12:32.725Z,28.70
2018-07-17T07:15:05.862Z,28.80
2018-07-17T07:17:38.218Z,29.00
2018-07-17T07:20:08.355Z,29.20
2018-07-17T07:22:36.550Z,29.50
2018-07-17T07:25:07.591Z,29.60
2018-07-17T07:27:38.033Z,29.70
2018-07-17T07:30:15.994Z,29.90
2018-07-17T07:32:49.910Z,30.00
2018-07-17T07:35:20.946Z,30.10
2018-07-17T07:37:54.758Z,30.10
2018-07-17T07:40:23.076Z,30.20
2018-07-17T07:42:51.360Z,30.20
2018-07-17T07:45:25.523Z,30.30
2018-07-17T07:47:57.971Z,30.20
2018-07-17T07:50:29.261Z,30.50
2018-07-17T07:52:59.362Z,30.50
2018-07-17T07:55:27.664Z,30.60
2018-07-17T07:58:02.276Z,30.80
2018-07-17T08:00:30.483Z,31.10
2018-07-17T08:03:05.015Z,31.30
2018-07-17T08:05:37.352Z,31.30
2018-07-17T08:08:13.239Z,31.50
2018-07-17T08:10:41.454Z,31.70
2018-07-17T08:13:16.038Z,31.90
2018-07-17T08:15:44.150Z,32.00
2018-07-17T08:18:15.143Z,32.20
2018-07-17T08:20:43.498Z,32.20
2018-07-17T08:23:11.638Z,32.30
2018-07-17T08:25:42.610Z,32.60
2018-07-17T08:28:10.755Z,32.80
2018-07-17T08:30:45.447Z,33.00
2018-07-17T08:33:13.554Z,33.20
2018-07-17T08:35:53.249Z,33.00
2018-07-17T08:38:30.715Z,32.90
2018-07-17T08:40:59.154Z,32.80
2018-07-17T08:43:33.938Z,33.10
2018-07-17T08:46:02.268Z,33.30
2018-07-17T08:48:30.483Z,33.40
2018-07-17T08:51:05.096Z,33.30
2018-07-17T08:53:33.294Z,33.40
2018-07-17T08:56:04.207Z,33.30
2018-07-17T08:58:32.487Z,33.40
2018-07-17T09:01:05.593Z,33.30
2018-07-17T09:03:38.981Z,33.10
2018-07-17T09:06:20.529Z,32.90
2018-07-17T09:08:52.993Z,33.00
2018-07-17T09:11:28.270Z,33.30
2018-07-17T09:13:56.982Z,33.70
2018-07-17T09:16:27.870Z,33.80
2018-07-17T09:18:56.085Z,34.00
2018-07-17T09:21:30.608Z,33.80
2018-07-17T09:24:01.546Z,33.90
2018-07-17T09:26:33.527Z,34.10
2018-07-17T09:29:06.625Z,34.30
2018-07-17T09:31:39.907Z,34.00
2018-07-17T09:34:11.122Z,33.90
2018-07-17T09:36:39.331Z,34.00
2018-07-17T09:39:12.003Z,33.20
2018-07-17T09:41:40.174Z,33.10
2018-07-17T09:44:16.875Z,33.10
2018-07-17T09:46:45.122Z,33.40
2018-07-17T09:49:24.978Z,33.60
2018-07-17T09:51:53.219Z,33.80
2018-07-17T09:54:26.530Z,33.70
2018-07-17T09:57:01.143Z,33.80
2018-07-17T09:59:29.292Z,33.90
2018-07-17T10:02:07.949Z,34.00
2018-07-17T10:04:40.428Z,33.80
2018-07-17T10:07:11.482Z,33.70
2018-07-17T10:09:49.133Z,33.90
2018-07-17T10:12:22.521Z,33.90
2018-07-17T10:14:53.485Z,33.70
2018-07-17T10:17:21.678Z,33.60
2018-07-17T10:19:56.112Z,33.50
2018-07-17T10:22:31.608Z,33.70
2018-07-17T10:25:10.402Z,33.70
2018-07-17T10:27:41.543Z,33.70
2018-07-17T10:30:09.773Z,33.60
2018-07-17T10:32:40.672Z,33.80
2018-07-17T10:35:08.889Z,34.00
2018-07-17T10:37:41.304Z,34.30
2018-07-17T10:40:09.425Z,34.40
2018-07-17T10:42:37.997Z,34.40
2018-07-17T10:45:09.361Z,34.50
2018-07-17T10:47:37.715Z,34.30
2018-07-17T10:50:07.462Z,34.00
2018-07-17T10:52:38.383Z,33.90
2018-07-17T10:55:09.282Z,34.00
2018-07-17T10:57:39.635Z,33.60
2018-07-17T11:00:07.798Z,33.60
2018-07-17T11:02:36.804Z,33.70
2018-07-17T11:05:10.267Z,33.80
2018-07-17T11:07:48.538Z,33.90
2018-07-17T11:10:16.882Z,34.10
2018-07-17T11:12:45.049Z,34.30
2018-07-17T11:15:19.754Z,34.40
2018-07-17T11:17:47.935Z,34.50
2018-07-17T11:20:19.428Z,34.70
2018-07-17T11:22:50.384Z,34.90
2018-07-17T11:25:18.526Z,34.90
2018-07-17T11:27:49.969Z,34.80
2018-07-17T11:30:21.723Z,34.50
2018-07-17T11:32:49.910Z,34.30
2018-07-17T11:35:19.018Z,34.40
2018-07-17T11:37:47.251Z,34.70
2018-07-17T11:40:15.497Z,34.80
2018-07-17T11:42:48.075Z,34.60
2018-07-17T11:45:16.289Z,34.60
2018-07-17T11:47:50.772Z,34.30
2018-07-17T11:50:29.851Z,34.30
2018-07-17T11:53:16.018Z,34.10
2018-07-17T11:55:46.287Z,34.10
2018-07-17T11:58:14.497Z,34.00
2018-07-17T12:00:51.048Z,34.00
2018-07-17T12:03:23.396Z,34.00
2018-07-17T12:06:01.065Z,34.20
2018-07-17T12:08:29.193Z,34.10
2018-07-17T12:11:02.393Z,33.80
2018-07-17T12:13:35.866Z,33.70
2018-07-17T12:18:49.009Z,34.40
2018-07-17T12:21:30.841Z,34.60
2018-07-17T12:23:59.177Z,34.50
2018-07-17T12:26:27.552Z,34.20
2018-07-17T12:28:55.807Z,34.30
2018-07-17T12:31:26.851Z,34.40
2018-07-17T12:33:55.247Z,34.50
2018-07-17T12:36:23.530Z,34.60
2018-07-17T12:38:54.381Z,34.80
2018-07-17T12:43:55.086Z,34.90
2018-07-17T12:46:23.225Z,35.00
2018-07-17T12:48:55.648Z,35.00
2018-07-17T12:51:33.539Z,34.90
2018-07-17T12:54:02.009Z,35.10
2018-07-17T12:56:30.218Z,35.10
2018-07-17T12:59:01.126Z,34.90
2018-07-17T13:01:29.503Z,34.90
2018-07-17T13:03:57.701Z,34.90
2018-07-17T13:06:31.454Z,34.50
2018-07-17T13:08:59.661Z,34.30
2018-07-17T13:11:36.538Z,34.20
2018-07-17T13:14:05.424Z,34.20
2018-07-17T13:16:36.641Z,34.30
2018-07-17T13:19:08.653Z,34.50
2018-07-17T13:21:36.895Z,34.70
2018-07-17T13:24:11.598Z,34.60
2018-07-17T13:26:39.844Z,34.60
2018-07-17T13:29:17.472Z,34.40
2018-07-17T13:31:51.012Z,34.20
2018-07-17T13:34:19.272Z,33.90
2018-07-17T13:36:53.934Z,33.60
2018-07-17T13:39:22.100Z,33.30
2018-07-17T13:41:54.689Z,33.10
2018-07-17T13:44:29.310Z,33.20
2018-07-17T13:46:57.455Z,33.40
2018-07-17T13:49:39.448Z,33.40
2018-07-17T13:52:07.812Z,33.40
2018-07-17T13:54:36.021Z,33.50
2018-07-17T13:57:10.563Z,33.60
2018-07-17T13:59:41.534Z,33.70
2018-07-17T14:02:12.786Z,33.80
2018-07-17T14:04:41.194Z,34.00
2018-07-17T14:07:09.348Z,34.10
2018-07-17T14:09:41.761Z,34.00
2018-07-17T14:12:16.879Z,34.00
2018-07-17T14:14:47.971Z,34.00
2018-07-17T14:17:16.200Z,34.10
2018-07-17T14:19:48.466Z,34.10
2018-07-17T14:22:28.515Z,34.00
2018-07-17T14:24:56.683Z,33.70
2018-07-17T14:27:27.644Z,33.40
2018-07-17T14:29:58.872Z,33.00
2018-07-17T14:32:27.061Z,32.70
2018-07-17T14:35:04.706Z,32.60
2018-07-17T14:37:32.907Z,32.70
2018-07-17T14:40:06.030Z,32.70
2018-07-17T14:42:34.154Z,32.70
2018-07-17T14:45:02.376Z,32.50
2018-07-17T14:47:39.925Z,32.50
2018-07-17T14:50:08.748Z,32.30
2018-07-17T14:52:37.097Z,32.10
2018-07-17T14:55:10.701Z,32.00
2018-07-17T14:57:39.375Z,31.80
2018-07-17T15:00:08.649Z,31.80
2018-07-17T15:02:36.830Z,31.80
2018-07-17T15:05:05.820Z,31.70
2018-07-17T15:07:36.087Z,31.70
2018-07-17T15:10:04.885Z,31.70
2018-07-17T15:12:33.051Z,31.60
2018-07-17T15:15:01.287Z,32.00
2018-07-17T15:17:34.296Z,32.10
2018-07-17T15:20:04.506Z,32.10
2018-07-17T15:22:32.775Z,32.10
2018-07-17T15:25:07.361Z,32.30
2018-07-17T15:27:35.495Z,32.40
2018-07-17T15:30:06.450Z,32.50
2018-07-17T15:32:34.542Z,32.50
2018-07-17T15:35:08.920Z,32.30
2018-07-17T15:37:40.032Z,32.10
2018-07-17T15:40:10.575Z,32.00
2018-07-17T15:42:38.850Z,31.70
2018-07-17T15:45:07.029Z,31.60
2018-07-17T15:47:41.678Z,31.50
2018-07-17T15:50:09.852Z,31.30
2018-07-17T15:52:40.084Z,31.00
2018-07-17T15:55:13.375Z,31.00
2018-07-17T15:57:41.661Z,31.00
2018-07-17T16:00:09.809Z,31.00
2018-07-17T16:02:42.023Z,30.90
2018-07-17T16:05:20.384Z,30.90
2018-07-17T16:08:01.275Z,30.80
2018-07-17T16:10:29.550Z,30.70
2018-07-17T16:13:04.146Z,30.60
2018-07-17T16:15:35.089Z,30.60
2018-07-17T16:18:05.588Z,30.70
2018-07-17T16:20:35.849Z,30.80
2018-07-17T16:23:04.136Z,30.80
2018-07-17T16:25:37.450Z,30.80
2018-07-17T16:28:10.008Z,30.80
2018-07-17T16:30:42.384Z,30.80
2018-07-17T16:33:16.769Z,30.80
2018-07-17T16:35:52.090Z,30.80
2018-07-17T16:38:30.452Z,30.70
2018-07-17T16:41:03.305Z,30.60
2018-07-17T16:43:31.479Z,30.40
2018-07-17T16:46:07.201Z,30.30
2018-07-17T16:48:38.200Z,30.20
2018-07-17T16:51:10.436Z,30.10
2018-07-17T16:53:39.106Z,30.00
2018-07-17T16:56:09.398Z,29.90
2018-07-17T16:58:37.528Z,29.70
2018-07-17T17:01:15.036Z,29.60
2018-07-17T17:03:43.294Z,29.40
2018-07-17T17:06:15.507Z,29.20
2018-07-17T17:08:55.431Z,29.00
2018-07-17T17:11:23.710Z,28.70
2018-07-17T17:13:56.637Z,28.50
2018-07-17T17:16:24.789Z,28.40
2018-07-17T17:18:55.603Z,28.20
2018-07-17T17:21:23.811Z,28.00
2018-07-17T17:23:55.079Z,27.90
2018-07-17T17:26:29.313Z,27.80
2018-07-17T17:29:02.467Z,27.60
2018-07-17T17:31:30.570Z,27.60
2018-07-17T17:34:05.159Z,27.50
2018-07-17T17:36:33.402Z,27.40
2018-07-17T17:39:05.464Z,27.30
2018-07-17T17:41:45.470Z,27.20
2018-07-17T17:44:20.021Z,27.20
2018-07-17T17:46:48.609Z,27.20
2018-07-17T17:49:16.780Z,27.20
2018-07-17T17:51:49.971Z,27.20
2018-07-17T17:54:28.484Z,27.20
2018-07-17T17:57:00.927Z,27.20
2018-07-17T17:59:33.361Z,27.20
2018-07-17T18:02:07.950Z,27.20
2018-07-17T18:04:39.116Z,27.20
2018-07-17T18:07:09.435Z,27.20
2018-07-17T18:09:37.837Z,27.20
2018-07-17T18:12:06.029Z,27.20
2018-07-17T18:14:36.424Z,27.20
2018-07-17T18:17:11.048Z,27.20
2018-07-17T18:19:39.207Z,27.20
2018-07-17T18:22:13.391Z,27.00
2018-07-17T18:24:41.625Z,26.90
2018-07-17T18:27:09.889Z,26.70
2018-07-17T18:29:38.243Z,26.50
2018-07-17T18:32:12.814Z,26.30
2018-07-17T18:34:47.103Z,26.20
2018-07-17T18:37:18.419Z,26.10
2018-07-17T18:39:50.552Z,26.00
2018-07-17T18:42:19.264Z,25.80
2018-07-17T18:44:50.323Z,25.70
2018-07-17T18:47:18.633Z,25.60
2018-07-17T18:50:12.000Z,25.50
2018-07-17T18:52:23.091Z,25.40
2018-07-17T18:54:52.392Z,25.30
2018-07-17T18:57:20.559Z,25.20
2018-07-17T18:59:53.590Z,25.00
2018-07-17T19:05:02.881Z,24.90
2018-07-17T19:07:37.335Z,24.80
2018-07-17T19:10:12.019Z,24.70
2018-07-17T19:12:40.209Z,24.60
2018-07-17T19:15:11.388Z,24.50
2018-07-17T19:17:43.754Z,24.40
2018-07-17T19:20:20.815Z,24.30
2018-07-17T19:22:48.928Z,24.30
2018-07-17T19:25:24.434Z,24.20
2018-07-17T19:27:55.532Z,24.10
2018-07-17T19:30:25.865Z,24.10
2018-07-17T19:32:54.039Z,24.00
2018-07-17T19:35:26.565Z,23.90
2018-07-17T19:38:01.000Z,23.80
2018-07-17T19:40:32.818Z,23.70
2018-07-17T19:43:01.090Z,23.70
2018-07-17T19:45:29.318Z,23.60
2018-07-17T19:48:03.864Z,23.50
2018-07-17T19:50:36.675Z,23.50
2018-07-17T19:53:04.930Z,23.40
2018-07-17T19:55:33.306Z,23.30
2018-07-17T19:58:06.677Z,23.30
2018-07-17T20:00:41.354Z,23.20
2018-07-17T20:03:09.465Z,23.10
2018-07-17T20:05:44.065Z,23.00
2018-07-17T20:08:15.208Z,22.90
2018-07-17T20:10:54.990Z,22.80
2018-07-17T20:13:27.616Z,22.70
2018-07-17T20:15:55.757Z,22.60
2018-07-17T20:18:29.329Z,22.50
2018-07-17T20:21:09.064Z,22.40
2018-07-17T20:23:37.340Z,22.30
2018-07-17T20:26:12.188Z,22.20
2018-07-17T20:28:42.388Z,22.10
2018-07-17T20:31:10.542Z,22.00
2018-07-17T20:33:48.914Z,21.90
2018-07-17T20:36:21.329Z,21.90
2018-07-17T20:38:54.469Z,21.80
2018-07-17T20:41:24.730Z,21.70
2018-07-17T20:43:52.892Z,21.60
2018-07-17T20:46:24.105Z,21.50
2018-07-17T20:48:54.565Z,21.50
2018-07-17T20:51:34.384Z,21.40
2018-07-17T20:54:06.577Z,21.30
2018-07-17T20:56:37.675Z,21.20
2018-07-17T20:59:05.846Z,21.10
2018-07-17T21:01:38.240Z,21.00
2018-07-17T21:04:10.733Z,21.00
2018-07-17T21:06:41.756Z,20.90
2018-07-17T21:09:17.863Z,20.80
2018-07-17T21:11:45.979Z,20.70
2018-07-17T21:14:20.963Z,20.70
2018-07-17T21:16:49.210Z,20.60
2018-07-17T21:19:17.377Z,20.60
2018-07-17T21:21:51.985Z,20.50
2018-07-17T21:24:24.417Z,20.50
2018-07-17T21:26:58.814Z,20.40
2018-07-17T21:29:32.148Z,20.30
2018-07-17T21:32:03.124Z,20.30
2018-07-17T21:34:31.311Z,20.20
2018-07-17T21:37:05.708Z,20.20
2018-07-17T21:39:36.859Z,20.10
2018-07-17T21:42:07.997Z,20.10
2018-07-17T21:44:36.192Z,20.00
2018-07-17T21:47:07.257Z,20.00
2018-07-17T21:49:55.070Z,19.90
2018-07-17T21:52:26.027Z,19.90
2018-07-17T21:54:56.097Z,19.80
2018-07-17T21:57:24.339Z,19.80
2018-07-17T21:59:55.339Z,19.70
2018-07-17T22:02:26.404Z,19.70
2018-07-17T22:04:56.720Z,19.70
2018-07-17T22:07:32.253Z,19.60
2018-07-17T22:10:06.942Z,19.60
2018-07-17T22:12:35.126Z,19.50
2018-07-17T22:15:06.290Z,19.50
2018-07-17T22:17:38.231Z,19.40
2018-07-17T22:20:09.212Z,19.30
2018-07-17T22:22:39.364Z,19.30
2018-07-17T22:25:07.588Z,19.20
2018-07-17T22:27:47.285Z,19.20
2018-07-17T22:30:15.612Z,19.20
2018-07-17T22:32:46.566Z,19.10
2018-07-17T22:35:16.697Z,19.10
2018-07-17T22:37:44.867Z,19.00
2018-07-17T22:40:19.462Z,19.00
2018-07-17T22:42:50.409Z,19.00
2018-07-17T22:45:18.570Z,18.90
2018-07-17T22:47:47.166Z,18.90
2018-07-17T22:50:15.417Z,18.80
2018-07-17T22:52:49.958Z,18.80
2018-07-17T22:55:18.111Z,18.70
2018-07-17T22:57:50.389Z,18.70
2018-07-17T23:00:28.522Z,18.70
2018-07-17T23:02:56.678Z,18.60
2018-07-17T23:08:04.513Z,18.60
2018-07-17T23:10:38.985Z,18.50
2018-07-17T23:13:13.473Z,18.50
2018-07-17T23:15:50.104Z,18.50
2018-07-17T23:18:18.290Z,18.40
2018-07-17T23:20:51.319Z,18.40
2018-07-17T23:23:20.394Z,18.40
2018-07-17T23:25:51.382Z,18.40
2018-07-17T23:28:21.553Z,18.30
2018-07-17T23:30:49.698Z,18.30
2018-07-17T23:33:21.173Z,18.20
2018-07-17T23:35:52.054Z,18.20
2018-07-17T23:38:20.254Z,18.20
2018-07-17T23:40:51.279Z,18.10
2018-07-17T23:43:31.318Z,18.10
2018-07-17T23:45:59.530Z,18.10
2018-07-17T23:48:35.129Z,18.00
2018-07-17T23:53:36.293Z,17.90
2018-07-17T23:56:04.510Z,17.90
2018-07-17T23:58:39.153Z,17.90
